sensor_id;sensor_type;location;lat;lon;timestamp;pressure;altitude;pressure_sealevel;temperature;humidity
35307;BME280;21420;52.196;21.416;2023-01-30T00:00:54;99945.04;;;0.25;76.20
35307;BME280;21420;52.196;21.416;2023-01-30T00:03:23;99944.87;;;0.27;76.22
35307;BME280;21420;52.196;21.416;2023-01-30T00:05:51;99940.83;;;0.28;76.14
35307;BME280;21420;52.196;21.416;2023-01-30T00:08:18;99938.02;;;0.28;76.40
35307;BME280;21420;52.196;21.416;2023-01-30T00:10:46;99937.48;;;0.29;76.29
35307;BME280;21420;52.196;21.416;2023-01-30T00:13:14;99932.45;;;0.29;76.14
35307;BME280;21420;52.196;21.416;2023-01-30T00:15:42;99931.70;;;0.31;76.35
35307;BME280;21420;52.196;21.416;2023-01-30T00:18:09;99929.16;;;0.32;76.38
35307;BME280;21420;52.196;21.416;2023-01-30T00:20:36;99919.30;;;0.32;76.38
35307;BME280;21420;52.196;21.416;2023-01-30T00:23:04;99915.47;;;0.34;76.24
35307;BME280;21420;52.196;21.416;2023-01-30T00:25:31;99912.76;;;0.37;76.41
35307;BME280;21420;52.196;21.416;2023-01-30T00:27:59;99910.83;;;0.36;76.39
35307;BME280;21420;52.196;21.416;2023-01-30T00:30:28;99902.84;;;0.37;76.34
35307;BME280;21420;52.196;21.416;2023-01-30T00:32:57;99894.42;;;0.38;76.36
35307;BME280;21420;52.196;21.416;2023-01-30T00:35:25;99893.90;;;0.38;76.42
35307;BME280;21420;52.196;21.416;2023-01-30T00:37:58;99889.74;;;0.39;76.29
35307;BME280;21420;52.196;21.416;2023-01-30T00:40:26;99883.70;;;0.39;76.37
35307;BME280;21420;52.196;21.416;2023-01-30T00:42:54;99879.88;;;0.39;76.38
35307;BME280;21420;52.196;21.416;2023-01-30T00:45:42;99872.54;;;0.40;76.34
35307;BME280;21420;52.196;21.416;2023-01-30T00:48:30;99866.81;;;0.43;76.50
35307;BME280;21420;52.196;21.416;2023-01-30T00:50:57;99856.52;;;0.43;76.48
35307;BME280;21420;52.196;21.416;2023-01-30T00:53:25;99849.95;;;0.44;76.55
35307;BME280;21420;52.196;21.416;2023-01-30T00:55:54;99840.95;;;0.45;76.59
35307;BME280;21420;52.196;21.416;2023-01-30T00:58:22;99832.41;;;0.46;76.56
35307;BME280;21420;52.196;21.416;2023-01-30T01:00:50;99829.34;;;0.46;76.59
35307;BME280;21420;52.196;21.416;2023-01-30T01:03:18;99818.18;;;0.46;76.53
35307;BME280;21420;52.196;21.416;2023-01-30T01:05:45;99814.80;;;0.46;76.43
35307;BME280;21420;52.196;21.416;2023-01-30T01:08:13;99810.25;;;0.47;76.57
35307;BME280;21420;52.196;21.416;2023-01-30T01:10:40;99803.30;;;0.47;76.58
35307;BME280;21420;52.196;21.416;2023-01-30T01:13:07;99800.02;;;0.47;76.48
35307;BME280;21420;52.196;21.416;2023-01-30T01:15:36;99794.00;;;0.46;76.50
35307;BME280;21420;52.196;21.416;2023-01-30T01:18:04;99786.95;;;0.45;76.44
35307;BME280;21420;52.196;21.416;2023-01-30T01:20:31;99778.81;;;0.46;76.52
35307;BME280;21420;52.196;21.416;2023-01-30T01:22:58;99768.23;;;0.47;76.42
35307;BME280;21420;52.196;21.416;2023-01-30T01:25:25;99765.86;;;0.48;76.52
35307;BME280;21420;52.196;21.416;2023-01-30T01:27:53;99758.36;;;0.48;76.53
35307;BME280;21420;52.196;21.416;2023-01-30T01:30:21;99750.42;;;0.51;76.72
35307;BME280;21420;52.196;21.416;2023-01-30T01:32:51;99743.58;;;0.51;76.63
35307;BME280;21420;52.196;21.416;2023-01-30T01:35:19;99739.70;;;0.50;76.64
35307;BME280;21420;52.196;21.416;2023-01-30T01:37:46;99729.52;;;0.50;76.56
35307;BME280;21420;52.196;21.416;2023-01-30T01:40:17;99722.46;;;0.49;76.66
35307;BME280;21420;52.196;21.416;2023-01-30T01:43:14;99721.29;;;0.49;76.50
35307;BME280;21420;52.196;21.416;2023-01-30T01:45:46;99707.84;;;0.47;76.52
35307;BME280;21420;52.196;21.416;2023-01-30T01:48:38;99700.73;;;0.46;76.49
35307;BME280;21420;52.196;21.416;2023-01-30T01:51:28;99701.68;;;0.47;76.60
35307;BME280;21420;52.196;21.416;2023-01-30T01:54:05;99697.66;;;0.47;76.62
35307;BME280;21420;52.196;21.416;2023-01-30T01:56:37;99688.88;;;0.47;76.53
35307;BME280;21420;52.196;21.416;2023-01-30T01:59:20;99685.96;;;0.47;76.61
35307;BME280;21420;52.196;21.416;2023-01-30T02:01:48;99687.48;;;0.46;76.56
35307;BME280;21420;52.196;21.416;2023-01-30T02:04:16;99678.36;;;0.47;76.50
35307;BME280;21420;52.196;21.416;2023-01-30T02:07:03;99668.16;;;0.49;76.69
35307;BME280;21420;52.196;21.416;2023-01-30T02:09:31;99657.91;;;0.50;76.68
35307;BME280;21420;52.196;21.416;2023-01-30T02:11:59;99652.12;;;0.51;76.72
35307;BME280;21420;52.196;21.416;2023-01-30T02:14:32;99645.10;;;0.53;76.81
35307;BME280;21420;52.196;21.416;2023-01-30T02:16:59;99641.21;;;0.53;76.66
35307;BME280;21420;52.196;21.416;2023-01-30T02:19:49;99641.10;;;0.54;76.64
35307;BME280;21420;52.196;21.416;2023-01-30T02:22:28;99646.77;;;0.54;76.54
35307;BME280;21420;52.196;21.416;2023-01-30T02:40:29;99622.91;;;0.57;76.82
35307;BME280;21420;52.196;21.416;2023-01-30T02:48:38;99599.20;;;0.57;76.73
35307;BME280;21420;52.196;21.416;2023-01-30T02:51:15;99600.83;;;0.56;76.63
35307;BME280;21420;52.196;21.416;2023-01-30T02:53:46;99592.92;;;0.55;76.78
35307;BME280;21420;52.196;21.416;2023-01-30T02:56:14;99585.81;;;0.55;76.81
35307;BME280;21420;52.196;21.416;2023-01-30T02:58:47;99579.01;;;0.56;76.72
35307;BME280;21420;52.196;21.416;2023-01-30T03:10:16;99556.71;;;0.55;76.77
35307;BME280;21420;52.196;21.416;2023-01-30T03:18:21;99552.46;;;0.53;76.80
35307;BME280;21420;52.196;21.416;2023-01-30T03:20:48;99540.13;;;0.54;76.70
35307;BME280;21420;52.196;21.416;2023-01-30T03:23:17;99534.69;;;0.53;76.65
35307;BME280;21420;52.196;21.416;2023-01-30T03:25:45;99533.40;;;0.53;76.61
35307;BME280;21420;52.196;21.416;2023-01-30T03:28:16;99527.23;;;0.51;76.68
35307;BME280;21420;52.196;21.416;2023-01-30T03:30:44;99521.85;;;0.50;76.83
35307;BME280;21420;52.196;21.416;2023-01-30T03:33:12;99511.42;;;0.49;76.70
35307;BME280;21420;52.196;21.416;2023-01-30T03:35:39;99501.61;;;0.49;76.68
35307;BME280;21420;52.196;21.416;2023-01-30T03:38:08;99487.20;;;0.46;76.42
35307;BME280;21420;52.196;21.416;2023-01-30T03:40:36;99481.60;;;0.43;76.50
35307;BME280;21420;52.196;21.416;2023-01-30T03:43:03;99469.52;;;0.39;76.60
35307;BME280;21420;52.196;21.416;2023-01-30T03:45:30;99470.52;;;0.35;76.48
35307;BME280;21420;52.196;21.416;2023-01-30T03:47:57;99456.52;;;0.29;76.51
35307;BME280;21420;52.196;21.416;2023-01-30T03:50:24;99452.52;;;0.26;76.39
35307;BME280;21420;52.196;21.416;2023-01-30T03:52:51;99446.61;;;0.25;76.50
35307;BME280;21420;52.196;21.416;2023-01-30T03:55:19;99439.04;;;0.19;76.44
35307;BME280;21420;52.196;21.416;2023-01-30T03:57:46;99440.89;;;0.17;76.42
35307;BME280;21420;52.196;21.416;2023-01-30T04:00:14;99439.00;;;0.18;76.43
35307;BME280;21420;52.196;21.416;2023-01-30T04:02:46;99442.30;;;0.17;76.57
35307;BME280;21420;52.196;21.416;2023-01-30T04:05:15;99439.05;;;0.14;76.59
35307;BME280;21420;52.196;21.416;2023-01-30T04:07:49;99428.76;;;0.11;76.59
35307;BME280;21420;52.196;21.416;2023-01-30T04:10:17;99426.03;;;0.10;76.66
35307;BME280;21420;52.196;21.416;2023-01-30T04:12:46;99422.69;;;0.09;76.51
35307;BME280;21420;52.196;21.416;2023-01-30T04:15:13;99422.23;;;0.07;76.55
35307;BME280;21420;52.196;21.416;2023-01-30T04:17:49;99410.48;;;0.05;76.50
35307;BME280;21420;52.196;21.416;2023-01-30T04:20:48;99406.56;;;0.04;76.53
35307;BME280;21420;52.196;21.416;2023-01-30T04:23:19;99400.64;;;0.04;76.61
35307;BME280;21420;52.196;21.416;2023-01-30T04:25:46;99403.98;;;0.03;76.56
35307;BME280;21420;52.196;21.416;2023-01-30T04:28:15;99400.42;;;0.04;76.61
35307;BME280;21420;52.196;21.416;2023-01-30T04:30:43;99390.35;;;0.04;76.53
35307;BME280;21420;52.196;21.416;2023-01-30T04:33:35;99380.77;;;0.03;76.71
35307;BME280;21420;52.196;21.416;2023-01-30T04:36:04;99376.92;;;0.03;76.57
35307;BME280;21420;52.196;21.416;2023-01-30T04:38:33;99367.92;;;0.03;76.62
35307;BME280;21420;52.196;21.416;2023-01-30T04:41:00;99362.05;;;0.03;76.59
35307;BME280;21420;52.196;21.416;2023-01-30T04:43:30;99360.34;;;0.02;76.72
35307;BME280;21420;52.196;21.416;2023-01-30T04:46:16;99359.39;;;0.01;76.73
35307;BME280;21420;52.196;21.416;2023-01-30T04:48:43;99340.06;;;0.00;76.77
35307;BME280;21420;52.196;21.416;2023-01-30T04:51:10;99333.29;;;0.00;76.60
35307;BME280;21420;52.196;21.416;2023-01-30T04:53:38;99327.86;;;-0.02;76.58
35307;BME280;21420;52.196;21.416;2023-01-30T04:56:05;99322.89;;;-0.04;76.60
35307;BME280;21420;52.196;21.416;2023-01-30T04:58:32;99320.80;;;-0.04;76.64
35307;BME280;21420;52.196;21.416;2023-01-30T05:01:20;99318.82;;;-0.05;76.66
35307;BME280;21420;52.196;21.416;2023-01-30T05:03:51;99312.88;;;-0.07;76.62
35307;BME280;21420;52.196;21.416;2023-01-30T05:06:19;99307.66;;;-0.08;76.56
35307;BME280;21420;52.196;21.416;2023-01-30T05:08:48;99309.28;;;-0.08;76.59
35307;BME280;21420;52.196;21.416;2023-01-30T05:11:16;99303.06;;;-0.06;76.76
35307;BME280;21420;52.196;21.416;2023-01-30T05:13:43;99293.64;;;-0.06;76.75
35307;BME280;21420;52.196;21.416;2023-01-30T05:16:11;99292.71;;;-0.05;76.80
35307;BME280;21420;52.196;21.416;2023-01-30T05:18:39;99291.15;;;-0.05;76.69
35307;BME280;21420;52.196;21.416;2023-01-30T05:21:11;99288.41;;;-0.05;76.69
35307;BME280;21420;52.196;21.416;2023-01-30T05:23:40;99280.00;;;-0.05;76.68
35307;BME280;21420;52.196;21.416;2023-01-30T05:26:07;99277.52;;;-0.04;76.65
35307;BME280;21420;52.196;21.416;2023-01-30T05:28:35;99270.62;;;-0.04;76.70
35307;BME280;21420;52.196;21.416;2023-01-30T05:31:04;99268.27;;;-0.02;76.82
35307;BME280;21420;52.196;21.416;2023-01-30T05:33:31;99268.32;;;-0.01;76.71
35307;BME280;21420;52.196;21.416;2023-01-30T05:35:58;99264.92;;;-0.01;76.70
35307;BME280;21420;52.196;21.416;2023-01-30T05:38:26;99254.05;;;-0.01;76.72
35307;BME280;21420;52.196;21.416;2023-01-30T05:41:19;99241.17;;;0.01;76.72
35307;BME280;21420;52.196;21.416;2023-01-30T05:43:49;99226.32;;;0.00;76.85
35307;BME280;21420;52.196;21.416;2023-01-30T05:46:17;99229.98;;;-0.00;76.63
35307;BME280;21420;52.196;21.416;2023-01-30T05:48:44;99222.13;;;-0.01;76.61
35307;BME280;21420;52.196;21.416;2023-01-30T05:51:20;99223.34;;;0.01;76.72
35307;BME280;21420;52.196;21.416;2023-01-30T05:53:47;99213.38;;;0.02;76.80
35307;BME280;21420;52.196;21.416;2023-01-30T05:56:15;99202.69;;;0.00;76.66
35307;BME280;21420;52.196;21.416;2023-01-30T05:58:42;99211.30;;;-0.00;76.73
35307;BME280;21420;52.196;21.416;2023-01-30T06:01:11;99200.69;;;0.00;76.69
35307;BME280;21420;52.196;21.416;2023-01-30T06:03:39;99198.39;;;0.00;76.58
35307;BME280;21420;52.196;21.416;2023-01-30T06:06:06;99193.27;;;0.00;76.67
35307;BME280;21420;52.196;21.416;2023-01-30T06:08:33;99194.27;;;0.01;76.64
35307;BME280;21420;52.196;21.416;2023-01-30T06:11:01;99191.90;;;0.01;76.68
35307;BME280;21420;52.196;21.416;2023-01-30T06:13:28;99195.85;;;0.00;76.72
35307;BME280;21420;52.196;21.416;2023-01-30T06:15:55;99190.53;;;-0.02;76.63
35307;BME280;21420;52.196;21.416;2023-01-30T06:18:23;99189.36;;;-0.02;76.60
35307;BME280;21420;52.196;21.416;2023-01-30T06:20:51;99185.70;;;-0.02;76.74
35307;BME280;21420;52.196;21.416;2023-01-30T06:23:19;99176.70;;;-0.02;76.61
35307;BME280;21420;52.196;21.416;2023-01-30T06:25:48;99174.13;;;-0.02;76.50
35307;BME280;21420;52.196;21.416;2023-01-30T06:28:16;99164.08;;;-0.03;76.56
35307;BME280;21420;52.196;21.416;2023-01-30T06:30:43;99151.88;;;-0.04;76.53
35307;BME280;21420;52.196;21.416;2023-01-30T06:33:10;99152.79;;;-0.04;76.53
35307;BME280;21420;52.196;21.416;2023-01-30T06:35:38;99145.81;;;-0.05;76.39
35307;BME280;21420;52.196;21.416;2023-01-30T06:38:07;99147.06;;;-0.06;76.47
35307;BME280;21420;52.196;21.416;2023-01-30T06:40:37;99142.55;;;-0.07;76.38
35307;BME280;21420;52.196;21.416;2023-01-30T06:43:05;99137.14;;;-0.07;76.54
35307;BME280;21420;52.196;21.416;2023-01-30T06:45:32;99119.52;;;-0.09;76.54
35307;BME280;21420;52.196;21.416;2023-01-30T06:47:59;99120.23;;;-0.10;76.44
35307;BME280;21420;52.196;21.416;2023-01-30T06:50:27;99120.55;;;-0.11;76.41
35307;BME280;21420;52.196;21.416;2023-01-30T06:52:55;99127.15;;;-0.12;76.41
35307;BME280;21420;52.196;21.416;2023-01-30T06:55:24;99121.64;;;-0.14;76.45
35307;BME280;21420;52.196;21.416;2023-01-30T06:58:05;99127.98;;;-0.14;76.56
35307;BME280;21420;52.196;21.416;2023-01-30T07:00:33;99125.57;;;-0.14;76.52
35307;BME280;21420;52.196;21.416;2023-01-30T07:03:00;99123.58;;;-0.14;76.55
35307;BME280;21420;52.196;21.416;2023-01-30T07:05:27;99122.77;;;-0.14;76.48
35307;BME280;21420;52.196;21.416;2023-01-30T07:07:54;99116.65;;;-0.12;76.51
35307;BME280;21420;52.196;21.416;2023-01-30T07:10:22;99119.48;;;-0.11;76.65
35307;BME280;21420;52.196;21.416;2023-01-30T07:12:49;99114.50;;;-0.12;76.52
35307;BME280;21420;52.196;21.416;2023-01-30T07:15:16;99102.61;;;-0.13;76.45
35307;BME280;21420;52.196;21.416;2023-01-30T07:17:43;99104.55;;;-0.12;76.44
35307;BME280;21420;52.196;21.416;2023-01-30T07:20:10;99105.45;;;-0.12;76.45
35307;BME280;21420;52.196;21.416;2023-01-30T07:22:38;99103.69;;;-0.10;76.39
35307;BME280;21420;52.196;21.416;2023-01-30T07:25:05;99092.05;;;-0.09;76.38
35307;BME280;21420;52.196;21.416;2023-01-30T07:27:33;99095.83;;;-0.09;76.36
35307;BME280;21420;52.196;21.416;2023-01-30T07:30:00;99083.97;;;-0.08;76.34
35307;BME280;21420;52.196;21.416;2023-01-30T07:32:27;99083.17;;;-0.09;76.33
35307;BME280;21420;52.196;21.416;2023-01-30T07:34:53;99081.56;;;-0.09;76.41
35307;BME280;21420;52.196;21.416;2023-01-30T07:37:21;99073.56;;;-0.10;76.42
35307;BME280;21420;52.196;21.416;2023-01-30T07:39:48;99074.65;;;-0.08;76.39
35307;BME280;21420;52.196;21.416;2023-01-30T07:42:15;99077.39;;;-0.08;76.43
35307;BME280;21420;52.196;21.416;2023-01-30T07:44:42;99076.73;;;-0.07;76.25
35307;BME280;21420;52.196;21.416;2023-01-30T07:47:09;99074.42;;;-0.07;76.39
35307;BME280;21420;52.196;21.416;2023-01-30T07:49:36;99072.21;;;-0.06;76.28
35307;BME280;21420;52.196;21.416;2023-01-30T07:52:03;99074.63;;;-0.06;76.30
35307;BME280;21420;52.196;21.416;2023-01-30T07:54:30;99059.10;;;-0.06;76.32
35307;BME280;21420;52.196;21.416;2023-01-30T07:56:56;99049.23;;;-0.08;76.27
35307;BME280;21420;52.196;21.416;2023-01-30T07:59:23;99045.91;;;-0.08;76.27
35307;BME280;21420;52.196;21.416;2023-01-30T08:01:50;99042.05;;;-0.08;76.19
35307;BME280;21420;52.196;21.416;2023-01-30T08:04:17;99040.46;;;-0.10;76.21
35307;BME280;21420;52.196;21.416;2023-01-30T08:06:44;99037.38;;;-0.15;76.20
35307;BME280;21420;52.196;21.416;2023-01-30T08:09:11;99029.39;;;-0.17;76.19
35307;BME280;21420;52.196;21.416;2023-01-30T08:11:38;99026.64;;;-0.17;76.01
35307;BME280;21420;52.196;21.416;2023-01-30T08:14:05;99025.41;;;-0.20;76.07
35307;BME280;21420;52.196;21.416;2023-01-30T08:16:32;99022.30;;;-0.24;76.08
35307;BME280;21420;52.196;21.416;2023-01-30T08:18:59;99021.36;;;-0.28;75.94
35307;BME280;21420;52.196;21.416;2023-01-30T08:21:26;99010.95;;;-0.30;75.88
35307;BME280;21420;52.196;21.416;2023-01-30T08:23:53;99013.79;;;-0.32;75.96
35307;BME280;21420;52.196;21.416;2023-01-30T08:26:21;99011.34;;;-0.33;75.82
35307;BME280;21420;52.196;21.416;2023-01-30T08:28:48;99009.02;;;-0.33;76.00
35307;BME280;21420;52.196;21.416;2023-01-30T08:31:15;99002.34;;;-0.36;75.95
35307;BME280;21420;52.196;21.416;2023-01-30T08:33:43;98998.95;;;-0.39;75.84
35307;BME280;21420;52.196;21.416;2023-01-30T08:36:10;98994.95;;;-0.41;75.91
35307;BME280;21420;52.196;21.416;2023-01-30T08:38:37;99002.15;;;-0.43;75.87
35307;BME280;21420;52.196;21.416;2023-01-30T08:41:05;99002.81;;;-0.44;75.89
35307;BME280;21420;52.196;21.416;2023-01-30T08:43:33;98994.23;;;-0.45;75.95
35307;BME280;21420;52.196;21.416;2023-01-30T08:46:00;98987.76;;;-0.45;75.88
35307;BME280;21420;52.196;21.416;2023-01-30T08:48:28;98988.64;;;-0.46;76.04
35307;BME280;21420;52.196;21.416;2023-01-30T08:51:06;98992.17;;;-0.46;76.11
35307;BME280;21420;52.196;21.416;2023-01-30T08:53:34;98987.34;;;-0.46;75.99
35307;BME280;21420;52.196;21.416;2023-01-30T08:56:01;98990.88;;;-0.47;75.95
35307;BME280;21420;52.196;21.416;2023-01-30T08:58:28;98991.61;;;-0.49;75.82
35307;BME280;21420;52.196;21.416;2023-01-30T09:00:55;98987.64;;;-0.50;75.90
35307;BME280;21420;52.196;21.416;2023-01-30T09:03:22;98981.96;;;-0.51;75.85
35307;BME280;21420;52.196;21.416;2023-01-30T09:05:54;98983.70;;;-0.52;75.90
35307;BME280;21420;52.196;21.416;2023-01-30T09:08:21;98978.94;;;-0.53;76.04
35307;BME280;21420;52.196;21.416;2023-01-30T09:10:49;98974.16;;;-0.54;75.91
35307;BME280;21420;52.196;21.416;2023-01-30T09:13:16;98969.16;;;-0.54;75.96
35307;BME280;21420;52.196;21.416;2023-01-30T09:15:43;98965.73;;;-0.55;75.98
35307;BME280;21420;52.196;21.416;2023-01-30T09:18:11;98955.48;;;-0.56;75.85
35307;BME280;21420;52.196;21.416;2023-01-30T09:20:38;98946.92;;;-0.56;75.87
35307;BME280;21420;52.196;21.416;2023-01-30T09:23:05;98943.95;;;-0.58;75.84
35307;BME280;21420;52.196;21.416;2023-01-30T09:25:32;98936.59;;;-0.58;75.90
35307;BME280;21420;52.196;21.416;2023-01-30T09:27:59;98929.62;;;-0.57;75.88
35307;BME280;21420;52.196;21.416;2023-01-30T09:30:26;98928.83;;;-0.54;75.92
35307;BME280;21420;52.196;21.416;2023-01-30T09:32:53;98926.33;;;-0.52;76.06
35307;BME280;21420;52.196;21.416;2023-01-30T09:35:20;98923.14;;;-0.50;76.13
35307;BME280;21420;52.196;21.416;2023-01-30T09:37:49;98907.11;;;-0.49;76.10
35307;BME280;21420;52.196;21.416;2023-01-30T09:40:21;98906.05;;;-0.47;76.05
35307;BME280;21420;52.196;21.416;2023-01-30T09:45:51;98885.00;;;-0.41;76.15
35307;BME280;21420;52.196;21.416;2023-01-30T09:48:34;98888.06;;;-0.40;76.08
35307;BME280;21420;52.196;21.416;2023-01-30T09:56:28;98885.80;;;-0.43;76.11
35307;BME280;21420;52.196;21.416;2023-01-30T09:59:02;98885.98;;;-0.44;75.99
35307;BME280;21420;52.196;21.416;2023-01-30T10:04:39;98880.84;;;-0.47;75.86
35307;BME280;21420;52.196;21.416;2023-01-30T10:20:56;98838.59;;;-0.28;76.11
35307;BME280;21420;52.196;21.416;2023-01-30T10:26:17;98830.75;;;-0.27;76.26
35307;BME280;21420;52.196;21.416;2023-01-30T10:28:54;98830.58;;;-0.29;76.19
35307;BME280;21420;52.196;21.416;2023-01-30T10:32:00;98832.40;;;-0.36;76.08
35307;BME280;21420;52.196;21.416;2023-01-30T10:34:31;98830.08;;;-0.38;76.08
35307;BME280;21420;52.196;21.416;2023-01-30T10:37:17;98825.80;;;-0.36;76.10
35307;BME280;21420;52.196;21.416;2023-01-30T10:42:35;98816.43;;;-0.39;76.22
35307;BME280;21420;52.196;21.416;2023-01-30T10:45:14;98809.98;;;-0.36;76.23
35307;BME280;21420;52.196;21.416;2023-01-30T10:50:20;98812.98;;;-0.28;76.46
35307;BME280;21420;52.196;21.416;2023-01-30T10:53:20;98802.96;;;-0.28;76.19
35307;BME280;21420;52.196;21.416;2023-01-30T10:56:03;98792.34;;;-0.27;76.30
35307;BME280;21420;52.196;21.416;2023-01-30T11:01:23;98782.30;;;-0.23;76.47
35307;BME280;21420;52.196;21.416;2023-01-30T11:04:03;98773.86;;;-0.18;76.46
35307;BME280;21420;52.196;21.416;2023-01-30T11:06:34;98775.88;;;-0.15;76.37
35307;BME280;21420;52.196;21.416;2023-01-30T11:09:01;98769.59;;;-0.13;76.38
35307;BME280;21420;52.196;21.416;2023-01-30T11:14:15;98763.29;;;-0.10;76.45
35307;BME280;21420;52.196;21.416;2023-01-30T11:16:49;98759.36;;;-0.10;76.31
35307;BME280;21420;52.196;21.416;2023-01-30T11:19:21;98752.44;;;-0.13;76.16
35307;BME280;21420;52.196;21.416;2023-01-30T11:21:52;98748.41;;;-0.11;76.40
35307;BME280;21420;52.196;21.416;2023-01-30T11:24:29;98744.65;;;-0.10;76.43
35307;BME280;21420;52.196;21.416;2023-01-30T11:27:28;98744.15;;;-0.09;76.57
35307;BME280;21420;52.196;21.416;2023-01-30T11:30:16;98740.70;;;-0.09;76.46
35307;BME280;21420;52.196;21.416;2023-01-30T11:32:47;98740.94;;;-0.11;76.36
35307;BME280;21420;52.196;21.416;2023-01-30T11:37:44;98734.30;;;-0.12;76.37
35307;BME280;21420;52.196;21.416;2023-01-30T11:40:27;98737.27;;;-0.09;76.41
35307;BME280;21420;52.196;21.416;2023-01-30T11:43:03;98729.40;;;-0.09;76.53
35307;BME280;21420;52.196;21.416;2023-01-30T11:45:36;98728.03;;;-0.10;76.59
35307;BME280;21420;52.196;21.416;2023-01-30T11:55:39;98715.98;;;-0.08;76.50
35307;BME280;21420;52.196;21.416;2023-01-30T11:58:15;98715.34;;;-0.10;76.42
35307;BME280;21420;52.196;21.416;2023-01-30T12:00:47;98709.19;;;-0.10;76.57
35307;BME280;21420;52.196;21.416;2023-01-30T12:03:17;98704.05;;;-0.08;76.56
35307;BME280;21420;52.196;21.416;2023-01-30T12:05:47;98705.34;;;-0.04;76.58
35307;BME280;21420;52.196;21.416;2023-01-30T12:08:22;98701.40;;;-0.01;76.66
35307;BME280;21420;52.196;21.416;2023-01-30T12:11:24;98694.58;;;0.01;76.61
35307;BME280;21420;52.196;21.416;2023-01-30T12:13:55;98689.67;;;0.03;76.60
35307;BME280;21420;52.196;21.416;2023-01-30T12:22:32;98683.10;;;0.10;76.75
35307;BME280;21420;52.196;21.416;2023-01-30T12:25:12;98692.58;;;0.10;76.82
35307;BME280;21420;52.196;21.416;2023-01-30T12:30:37;98683.00;;;0.12;76.85
35307;BME280;21420;52.196;21.416;2023-01-30T12:33:06;98681.92;;;0.12;76.84
35307;BME280;21420;52.196;21.416;2023-01-30T12:35:45;98667.07;;;0.12;76.82
35307;BME280;21420;52.196;21.416;2023-01-30T12:38:45;98663.59;;;0.13;76.89
35307;BME280;21420;52.196;21.416;2023-01-30T12:44:25;98671.95;;;0.14;76.99
35307;BME280;21420;52.196;21.416;2023-01-30T12:46:58;98667.04;;;0.17;77.03
35307;BME280;21420;52.196;21.416;2023-01-30T12:52:54;98670.67;;;0.22;77.06
35307;BME280;21420;52.196;21.416;2023-01-30T12:58:09;98674.86;;;0.25;76.97
35307;BME280;21420;52.196;21.416;2023-01-30T13:07:05;98675.05;;;0.26;77.07
35307;BME280;21420;52.196;21.416;2023-01-30T13:17:55;98666.50;;;0.32;77.32
35307;BME280;21420;52.196;21.416;2023-01-30T13:25:47;98655.09;;;0.35;77.29
35307;BME280;21420;52.196;21.416;2023-01-30T13:28:25;98654.77;;;0.37;77.29
35307;BME280;21420;52.196;21.416;2023-01-30T13:30:54;98651.02;;;0.40;77.31
35307;BME280;21420;52.196;21.416;2023-01-30T13:33:25;98649.84;;;0.43;77.35
35307;BME280;21420;52.196;21.416;2023-01-30T13:36:06;98650.38;;;0.43;77.30
35307;BME280;21420;52.196;21.416;2023-01-30T13:38:40;98646.11;;;0.43;77.35
35307;BME280;21420;52.196;21.416;2023-01-30T13:41:11;98649.20;;;0.43;77.28
35307;BME280;21420;52.196;21.416;2023-01-30T13:43:46;98650.91;;;0.43;77.35
35307;BME280;21420;52.196;21.416;2023-01-30T13:46:18;98648.83;;;0.44;77.34
35307;BME280;21420;52.196;21.416;2023-01-30T14:02:24;98651.10;;;0.53;77.38
35307;BME280;21420;52.196;21.416;2023-01-30T14:04:56;98643.16;;;0.54;77.45
35307;BME280;21420;52.196;21.416;2023-01-30T14:07:38;98641.90;;;0.57;77.40
35307;BME280;21420;52.196;21.416;2023-01-30T14:10:16;98637.47;;;0.59;77.42
35307;BME280;21420;52.196;21.416;2023-01-30T14:12:52;98637.60;;;0.62;77.50
35307;BME280;21420;52.196;21.416;2023-01-30T14:15:28;98645.82;;;0.64;77.52
35307;BME280;21420;52.196;21.416;2023-01-30T14:18:34;98650.93;;;0.65;77.50
35307;BME280;21420;52.196;21.416;2023-01-30T14:23:41;98658.17;;;0.69;77.60
35307;BME280;21420;52.196;21.416;2023-01-30T14:27:02;98663.98;;;0.72;77.66
35307;BME280;21420;52.196;21.416;2023-01-30T14:40:01;98680.17;;;0.84;77.85
35307;BME280;21420;52.196;21.416;2023-01-30T14:42:30;98677.17;;;0.87;77.84
35307;BME280;21420;52.196;21.416;2023-01-30T14:45:03;98686.86;;;0.90;77.80
35307;BME280;21420;52.196;21.416;2023-01-30T14:47:33;98688.27;;;0.94;77.82
35307;BME280;21420;52.196;21.416;2023-01-30T14:50:20;98678.70;;;0.96;77.94
35307;BME280;21420;52.196;21.416;2023-01-30T14:52:49;98681.48;;;0.99;77.95
35307;BME280;21420;52.196;21.416;2023-01-30T14:55:23;98691.66;;;0.99;77.89
35307;BME280;21420;52.196;21.416;2023-01-30T14:57:56;98691.81;;;1.00;77.91
35307;BME280;21420;52.196;21.416;2023-01-30T15:00:36;98692.48;;;1.01;77.89
35307;BME280;21420;52.196;21.416;2023-01-30T15:03:13;98694.70;;;1.02;77.97
35307;BME280;21420;52.196;21.416;2023-01-30T15:05:43;98701.46;;;1.07;78.01
35307;BME280;21420;52.196;21.416;2023-01-30T15:08:29;98703.48;;;1.11;77.97
35307;BME280;21420;52.196;21.416;2023-01-30T15:11:07;98698.84;;;1.12;77.96
35307;BME280;21420;52.196;21.416;2023-01-30T15:13:45;98699.52;;;1.13;78.08
35307;BME280;21420;52.196;21.416;2023-01-30T15:16:33;98699.64;;;1.14;77.99
35307;BME280;21420;52.196;21.416;2023-01-30T15:22:17;98699.84;;;1.15;78.05
35307;BME280;21420;52.196;21.416;2023-01-30T15:25:14;98695.32;;;1.14;78.05
35307;BME280;21420;52.196;21.416;2023-01-30T15:33:18;98698.05;;;1.19;78.08
35307;BME280;21420;52.196;21.416;2023-01-30T15:35:56;98702.71;;;1.20;77.98
35307;BME280;21420;52.196;21.416;2023-01-30T15:38:30;98705.34;;;1.20;77.95
35307;BME280;21420;52.196;21.416;2023-01-30T15:41:01;98709.69;;;1.19;77.88
35307;BME280;21420;52.196;21.416;2023-01-30T15:52:41;98722.05;;;1.21;78.09
35307;BME280;21420;52.196;21.416;2023-01-30T15:57:48;98725.80;;;1.25;78.11
35307;BME280;21420;52.196;21.416;2023-01-30T16:02:52;98729.43;;;1.27;78.17
35307;BME280;21420;52.196;21.416;2023-01-30T16:05:27;98725.34;;;1.27;78.06
35307;BME280;21420;52.196;21.416;2023-01-30T16:07:55;98730.27;;;1.28;77.99
35307;BME280;21420;52.196;21.416;2023-01-30T16:10:26;98729.63;;;1.30;78.19